createdAt,value
2018-07-19T00:01:56.549Z,3.30
2018-07-19T00:07:01.337Z,3.33
2018-07-19T00:12:06.390Z,3.07
2018-07-19T00:17:11.226Z,3.70
2018-07-19T00:22:16.123Z,3.50
2018-07-19T00:27:21.163Z,3.50
2018-07-19T00:32:25.980Z,3.47
2018-07-19T00:37:31.019Z,3.70
2018-07-19T00:42:35.902Z,3.60
2018-07-19T00:47:40.847Z,3.53
2018-07-19T00:52:45.567Z,3.40
2018-07-19T00:57:50.876Z,3.30
2018-07-19T01:02:55.612Z,3.80
2018-07-19T01:08:00.293Z,3.40
2018-07-19T01:13:05.416Z,3.50
2018-07-19T01:18:10.318Z,3.77
2018-07-19T01:23:15.063Z,3.80
2018-07-19T01:28:20.220Z,4.03
2018-07-19T01:33:24.987Z,3.77
2018-07-19T01:38:29.766Z,3.80
2018-07-19T01:43:34.434Z,3.93
2018-07-19T01:48:39.222Z,3.70
2018-07-19T01:53:43.954Z,4.60
2018-07-19T01:58:48.928Z,4.03
2018-07-19T02:03:53.703Z,4.13
2018-07-19T02:08:58.413Z,4.40
2018-07-19T02:14:03.142Z,4.43
2018-07-19T02:19:07.933Z,4.10
2018-07-19T02:24:12.999Z,4.47
2018-07-19T02:29:17.922Z,4.50
2018-07-19T02:34:22.720Z,3.80
2018-07-19T02:39:27.413Z,3.57
2018-07-19T02:44:32.127Z,4.00
2018-07-19T02:49:36.874Z,4.60
2018-07-19T02:54:41.622Z,4.10
2018-07-19T02:59:46.285Z,4.33
2018-07-19T03:04:51.080Z,4.77
2018-07-19T03:09:57.293Z,4.47
2018-07-19T03:15:01.924Z,4.57
2018-07-19T03:20:06.695Z,4.87
2018-07-19T03:25:11.553Z,4.60
2018-07-19T03:30:16.491Z,5.13
2018-07-19T03:35:21.283Z,4.17
2018-07-19T03:40:25.733Z,4.33
2018-07-19T03:45:30.486Z,4.50
2018-07-19T03:50:35.273Z,5.07
2018-07-19T03:55:39.975Z,4.27
2018-07-19T04:00:44.759Z,5.23
2018-07-19T04:05:49.471Z,4.83
2018-07-19T04:10:54.199Z,4.03
2018-07-19T04:15:59.077Z,4.20
2018-07-19T04:21:03.873Z,3.40
2018-07-19T04:26:08.575Z,3.17
2018-07-19T04:31:13.360Z,3.27
2018-07-19T04:36:18.220Z,3.00
2018-07-19T04:41:23.070Z,3.57
2018-07-19T04:46:27.857Z,3.60
2018-07-19T04:51:32.737Z,3.10
2018-07-19T04:56:37.460Z,3.10
2018-07-19T05:01:42.258Z,3.20
2018-07-19T05:06:46.647Z,3.00
2018-07-19T05:11:51.360Z,3.17
2018-07-19T05:16:56.120Z,3.30
2018-07-19T05:22:00.885Z,3.30
2018-07-19T05:27:05.563Z,3.70
2018-07-19T05:32:10.318Z,3.40
2018-07-19T05:37:15.142Z,3.50
2018-07-19T05:42:19.826Z,3.70
2018-07-19T05:47:24.597Z,3.50
2018-07-19T05:52:29.316Z,3.80
2018-07-19T05:57:34.014Z,4.00
2018-07-19T06:02:38.739Z,4.07
2018-07-19T06:07:43.792Z,3.87
2018-07-19T06:12:48.585Z,4.00
2018-07-19T06:17:53.284Z,4.43
2018-07-19T06:22:58.006Z,3.10
2018-07-19T06:28:02.748Z,3.40
2018-07-19T06:33:07.718Z,3.30
2018-07-19T06:38:12.620Z,3.60
2018-07-19T06:43:17.284Z,3.80
2018-07-19T06:48:22.076Z,3.63
2018-07-19T06:53:26.798Z,3.63
2018-07-19T06:58:31.511Z,3.10
2018-07-19T07:03:36.270Z,3.73
2018-07-19T07:08:41.100Z,3.50
2018-07-19T07:13:46.040Z,3.10
2018-07-19T07:18:50.758Z,3.40
2018-07-19T07:23:55.418Z,3.10
2018-07-19T07:29:00.090Z,3.17
2018-07-19T07:34:04.863Z,3.70
2018-07-19T07:39:10.930Z,3.10
2018-07-19T07:44:15.664Z,2.50
2018-07-19T07:49:20.406Z,2.47
2018-07-19T07:54:25.100Z,2.07
2018-07-19T07:59:29.869Z,2.77
2018-07-19T08:04:34.644Z,2.10
2018-07-19T08:09:39.336Z,2.10
2018-07-19T08:14:44.116Z,2.50
2018-07-19T08:19:48.804Z,2.30
2018-07-19T08:24:53.489Z,2.10
2018-07-19T08:29:58.272Z,2.30
2018-07-19T08:35:03.008Z,2.30
2018-07-19T08:40:07.898Z,2.03
2018-07-19T08:45:12.672Z,2.13
2018-07-19T08:50:17.308Z,2.43
2018-07-19T08:55:21.998Z,2.50
2018-07-19T09:00:26.627Z,2.10
2018-07-19T09:05:31.311Z,1.97
2018-07-19T09:10:36.203Z,2.07
2018-07-19T09:15:40.878Z,2.37
2018-07-19T09:20:45.674Z,2.27
2018-07-19T09:25:50.342Z,2.00
2018-07-19T09:30:55.021Z,2.27
2018-07-19T09:35:59.713Z,2.43
2018-07-19T09:41:04.370Z,2.50
2018-07-19T09:46:09.195Z,2.50
2018-07-19T09:51:13.948Z,2.43
2018-07-19T09:56:18.666Z,2.40
2018-07-19T10:01:23.482Z,2.30
2018-07-19T10:06:28.114Z,2.20
2018-07-19T10:11:32.820Z,2.40
2018-07-19T10:16:37.728Z,2.53
2018-07-19T10:21:42.773Z,2.60
2018-07-19T10:26:47.531Z,2.40
2018-07-19T10:31:52.311Z,2.13
2018-07-19T10:36:57.070Z,2.27
2018-07-19T10:42:02.012Z,2.23
2018-07-19T10:47:06.710Z,2.37
2018-07-19T10:52:11.445Z,2.50
2018-07-19T10:57:16.095Z,2.50
2018-07-19T11:02:20.850Z,2.50
2018-07-19T11:07:25.490Z,3.10
2018-07-19T11:12:30.126Z,2.93
2018-07-19T11:17:34.847Z,2.77
2018-07-19T11:22:39.591Z,2.10
2018-07-19T11:27:44.329Z,2.70
2018-07-19T11:32:49.051Z,2.57
2018-07-19T11:37:53.829Z,2.40
2018-07-19T11:42:58.501Z,3.27
2018-07-19T11:48:03.229Z,2.60
2018-07-19T11:53:07.965Z,2.60
2018-07-19T11:58:12.577Z,2.97
2018-07-19T12:03:17.245Z,2.80
2018-07-19T12:08:21.927Z,3.20
2018-07-19T12:13:26.996Z,2.60
2018-07-19T12:18:31.940Z,3.40
2018-07-19T12:23:36.627Z,2.37
2018-07-19T12:28:41.486Z,2.77
2018-07-19T12:33:46.230Z,2.43
2018-07-19T12:38:50.875Z,2.50
2018-07-19T12:43:56.412Z,2.87
2018-07-19T12:49:01.207Z,2.80
2018-07-19T12:54:06.347Z,2.90
2018-07-19T12:59:11.035Z,3.30
2018-07-19T13:04:15.737Z,2.90
2018-07-19T13:09:20.565Z,3.57
2018-07-19T13:14:26.102Z,2.90
2018-07-19T13:19:30.813Z,2.87
2018-07-19T13:24:35.469Z,2.87
2018-07-19T13:29:40.153Z,2.90
2018-07-19T13:34:45.003Z,3.00
2018-07-19T13:39:49.697Z,2.93
2018-07-19T13:44:54.571Z,2.80
2018-07-19T13:49:59.929Z,2.40
2018-07-19T13:55:04.703Z,2.83
2018-07-19T14:00:09.489Z,2.90
2018-07-19T14:05:14.323Z,3.00
2018-07-19T14:10:19.003Z,2.50
2018-07-19T14:15:23.684Z,2.60
2018-07-19T14:20:28.371Z,2.80
2018-07-19T14:25:33.198Z,2.63
2018-07-19T14:30:37.913Z,2.47
2018-07-19T14:35:42.631Z,2.50
2018-07-19T14:40:47.289Z,2.67
2018-07-19T14:45:52.004Z,2.70
2018-07-19T14:50:56.649Z,2.33
2018-07-19T14:56:01.387Z,2.30
2018-07-19T15:01:06.296Z,2.50
2018-07-19T15:06:11.009Z,2.67
2018-07-19T15:11:15.806Z,2.60
2018-07-19T15:16:20.697Z,2.43
2018-07-19T15:21:25.337Z,2.73
2018-07-19T15:26:30.005Z,2.47
2018-07-19T15:31:34.670Z,2.47
2018-07-19T15:36:40.303Z,2.70
2018-07-19T15:41:45.048Z,2.80
2018-07-19T15:46:49.696Z,2.40
2018-07-19T15:51:54.433Z,2.47
2018-07-19T15:56:59.269Z,2.53
2018-07-19T16:02:04.051Z,2.67
2018-07-19T16:07:08.727Z,2.60
2018-07-19T16:12:13.501Z,2.60
2018-07-19T16:17:18.186Z,2.07
2018-07-19T16:22:22.925Z,2.53
2018-07-19T16:27:27.619Z,2.37
2018-07-19T16:32:32.464Z,2.80
2018-07-19T16:37:37.144Z,2.40
2018-07-19T16:42:41.937Z,2.83
2018-07-19T16:47:46.702Z,2.73
2018-07-19T16:52:51.406Z,2.67
2018-07-19T16:57:55.766Z,2.23
2018-07-19T17:03:00.614Z,2.37
2018-07-19T17:08:05.384Z,2.33
2018-07-19T17:13:10.228Z,2.40
2018-07-19T17:18:14.879Z,2.93
2018-07-19T17:23:19.548Z,2.43
2018-07-19T17:28:24.260Z,2.50
2018-07-19T17:33:29.049Z,2.40
2018-07-19T17:38:33.757Z,2.30
2018-07-19T17:43:38.538Z,2.60
2018-07-19T17:48:43.386Z,2.70
2018-07-19T17:53:48.066Z,3.00
2018-07-19T17:58:52.781Z,2.47
2018-07-19T18:03:57.549Z,2.30
2018-07-19T18:09:03.036Z,2.70
2018-07-19T18:14:08.072Z,2.43
2018-07-19T18:19:12.786Z,2.40
2018-07-19T18:24:17.558Z,2.67
2018-07-19T18:29:22.474Z,2.87
2018-07-19T18:34:27.307Z,2.63
2018-07-19T18:39:32.024Z,2.70
2018-07-19T18:44:36.777Z,2.80
2018-07-19T18:49:41.604Z,2.60
2018-07-19T18:54:46.636Z,2.60
2018-07-19T18:59:51.510Z,2.77
2018-07-19T19:04:56.266Z,3.00
2018-07-19T19:10:01.209Z,2.73
2018-07-19T19:15:07.092Z,2.53
2018-07-19T19:20:11.948Z,2.80
2018-07-19T19:25:16.780Z,2.80
2018-07-19T19:30:21.529Z,2.53
2018-07-19T19:35:26.346Z,2.70
2018-07-19T19:40:31.032Z,2.73
2018-07-19T19:45:35.942Z,2.70
2018-07-19T19:50:40.944Z,2.53
2018-07-19T19:55:46.051Z,2.70
2018-07-19T20:00:51.123Z,3.03
2018-07-19T20:05:55.892Z,2.90
2018-07-19T20:11:00.894Z,3.43
2018-07-19T20:16:05.719Z,2.80
2018-07-19T20:21:10.443Z,2.93
2018-07-19T20:26:15.448Z,2.63
2018-07-19T20:31:20.376Z,3.00
2018-07-19T20:36:25.150Z,3.13
2018-07-19T20:41:29.999Z,2.90
2018-07-19T20:46:34.792Z,2.67
2018-07-19T20:51:39.556Z,2.87
2018-07-19T20:56:44.383Z,2.80
2018-07-19T21:01:49.093Z,3.07
2018-07-19T21:06:53.808Z,3.27
2018-07-19T21:11:58.543Z,3.20
2018-07-19T21:17:03.285Z,2.83
2018-07-19T21:22:08.285Z,2.77
2018-07-19T21:27:13.077Z,2.83
2018-07-19T21:32:17.742Z,3.20
2018-07-19T21:37:22.595Z,3.07
2018-07-19T21:42:27.412Z,3.23
2018-07-19T21:47:32.144Z,3.13
2018-07-19T21:52:36.815Z,3.53
2018-07-19T21:57:41.529Z,2.97
2018-07-19T22:02:46.299Z,3.10
2018-07-19T22:07:51.111Z,3.00
2018-07-19T22:12:55.733Z,3.27
2018-07-19T22:18:00.473Z,2.97
2018-07-19T22:23:05.164Z,3.40
2018-07-19T22:28:09.835Z,3.30
2018-07-19T22:33:14.519Z,3.57
2018-07-19T22:38:19.143Z,3.50
2018-07-19T22:43:23.768Z,3.10
2018-07-19T22:48:28.498Z,3.30
2018-07-19T22:53:33.305Z,2.90
2018-07-19T22:58:37.989Z,4.03
2018-07-19T23:03:42.428Z,5.27
2018-07-19T23:08:47.673Z,5.13
2018-07-19T23:13:52.358Z,3.87
2018-07-19T23:18:57.045Z,3.60
2018-07-19T23:24:01.685Z,3.83
2018-07-19T23:29:06.393Z,3.27
2018-07-19T23:34:11.083Z,3.13
2018-07-19T23:39:33.333Z,3.10
2018-07-19T23:44:43.330Z,3.10
2018-07-19T23:49:48.208Z,3.33
2018-07-19T23:54:52.879Z,3.30
2018-07-19T23:59:57.581Z,3.00
